Time;durP1;ratioP1;P1;durP2;ratioP2;P2;SDS_P1;SDS_P2;PMS_P1;PMS_P2;Temp;Humidity;BMP_temperature;BMP_pressure;BME280_temperature;BME280_humidity;BME280_pressure;Samples;Min_cycle;Max_cycle;Signal;HPM_P1;HPM_P2
2022/08/23 00:00:21;;;;;;;;;;;21.70;48.40;;;;;;464657;255;1270;-49
2022/08/23 00:02:21;;;;;;;;;;;21.60;48.30;;;;;;464240;256;1969;-49
2022/08/23 00:04:22;;;;;;;;;;;21.70;48.40;;;;;;464342;255;1323;-49
2022/08/23 00:06:24;;;;;;;;;;;21.60;48.40;;;;;;464218;256;1336;-49
2022/08/23 00:08:25;;;;;;;;;;;21.60;48.40;;;;;;464335;255;2202;-48
2022/08/23 00:10:26;;;;;;;;;;;21.60;48.40;;;;;;464569;255;1354;-49
2022/08/23 00:12:28;;;;;;;;;;;21.60;48.40;;;;;;464647;255;1258;-49
2022/08/23 00:14:29;;;;;;;;;;;21.60;48.40;;;;;;464620;255;1787;-49
2022/08/23 00:16:30;;;;;;;;;;;21.60;48.40;;;;;;464227;256;1363;-49
2022/08/23 00:18:32;;;;;;;;;;;21.60;48.40;;;;;;464499;255;1262;-49
2022/08/23 00:20:33;;;;;;;;;;;21.60;48.40;;;;;;464350;255;1273;-49
2022/08/23 00:22:35;;;;;;;;;;;21.60;48.40;;;;;;464321;255;1230;-49
2022/08/23 00:24:36;;;;;;;;;;;21.70;48.50;;;;;;464258;256;1058;-49
2022/08/23 00:26:37;;;;;;;;;;;21.60;48.40;;;;;;464428;255;1198;-49
2022/08/23 00:28:39;;;;;;;;;;;21.60;48.40;;;;;;464643;255;2183;-49
2022/08/23 00:30:40;;;;;;;;;;;21.60;48.40;;;;;;464270;255;1088;-48
2022/08/23 00:32:41;;;;;;;;;;;21.60;48.50;;;;;;464689;255;1098;-49
2022/08/23 00:34:42;;;;;;;;;;;21.60;48.40;;;;;;464674;255;1630;-48
2022/08/23 00:36:44;;;;;;;;;;;21.60;48.40;;;;;;464694;255;1076;-49
2022/08/23 00:38:45;;;;;;;;;;;21.60;48.40;;;;;;464262;256;1107;-49
2022/08/23 00:40:47;;;;;;;;;;;21.60;48.40;;;;;;464446;255;1077;-49
2022/08/23 00:47:39;;;;;;;;;;;21.60;48.50;;;;;;464662;257;1302;-49
2022/08/23 00:49:40;;;;;;;;;;;21.60;48.50;;;;;;464248;256;1390;-49
2022/08/23 00:51:41;;;;;;;;;;;21.60;48.50;;;;;;464491;255;1405;-49
2022/08/23 00:53:43;;;;;;;;;;;21.60;48.50;;;;;;464554;255;1236;-49
2022/08/23 00:55:44;;;;;;;;;;;21.60;48.50;;;;;;464641;255;1253;-48
2022/08/23 00:57:46;;;;;;;;;;;21.60;48.50;;;;;;464305;255;1274;-49
2022/08/23 00:59:47;;;;;;;;;;;21.60;48.50;;;;;;464621;255;2097;-49
2022/08/23 01:01:48;;;;;;;;;;;21.60;48.50;;;;;;464643;255;1296;-49
2022/08/23 01:03:49;;;;;;;;;;;21.60;48.50;;;;;;464656;255;1332;-48
2022/08/23 01:05:51;;;;;;;;;;;21.60;48.50;;;;;;464658;255;1310;-49
2022/08/23 01:07:53;;;;;;;;;;;21.60;48.50;;;;;;464254;256;2198;-49
2022/08/23 01:09:54;;;;;;;;;;;21.60;48.50;;;;;;464336;255;1178;-49
2022/08/23 01:11:56;;;;;;;;;;;21.60;48.60;;;;;;464432;255;1244;-49
2022/08/23 01:13:57;;;;;;;;;;;21.60;48.60;;;;;;464681;255;1091;-49
2022/08/23 01:15:58;;;;;;;;;;;21.60;48.50;;;;;;464681;255;1274;-49
2022/08/23 01:18:01;;;;;;;;;;;21.60;48.50;;;;;;464702;255;1206;-49
2022/08/23 01:20:02;;;;;;;;;;;21.60;48.50;;;;;;464187;256;2696;-48
2022/08/23 01:22:03;;;;;;;;;;;21.60;48.50;;;;;;464257;256;1330;-49
2022/08/23 01:24:04;;;;;;;;;;;21.60;48.50;;;;;;464525;255;1264;-49
2022/08/23 01:26:06;;;;;;;;;;;21.60;48.50;;;;;;464320;255;1228;-49
2022/08/23 01:28:07;;;;;;;;;;;21.60;48.50;;;;;;464503;255;2194;-49
2022/08/23 01:30:08;;;;;;;;;;;21.60;48.50;;;;;;464688;255;1226;-49
2022/08/23 01:32:10;;;;;;;;;;;21.60;48.60;;;;;;464687;255;1292;-49
2022/08/23 01:34:11;;;;;;;;;;;21.60;48.60;;;;;;464580;255;1285;-49
2022/08/23 01:36:12;;;;;;;;;;;21.60;48.60;;;;;;464597;255;1196;-49
2022/08/23 01:38:14;;;;;;;;;;;21.60;48.60;;;;;;464278;256;1390;-49
2022/08/23 01:40:15;;;;;;;;;;;21.60;48.60;;;;;;464681;255;1235;-49
2022/08/23 01:42:16;;;;;;;;;;;21.60;48.60;;;;;;464465;255;1297;-48
2022/08/23 01:44:18;;;;;;;;;;;21.60;48.60;;;;;;464687;255;1330;-49
2022/08/23 01:46:19;;;;;;;;;;;21.60;48.60;;;;;;464295;256;1306;-49
2022/08/23 01:48:20;;;;;;;;;;;21.60;48.60;;;;;;464268;256;2173;-49
2022/08/23 01:50:22;;;;;;;;;;;21.60;48.60;;;;;;464286;255;1251;-48
2022/08/23 01:52:23;;;;;;;;;;;21.60;48.50;;;;;;464479;255;1278;-50
2022/08/23 01:54:24;;;;;;;;;;;21.60;48.50;;;;;;464249;256;1238;-49
2022/08/23 01:56:26;;;;;;;;;;;21.60;48.50;;;;;;464631;255;1237;-49
2022/08/23 01:58:28;;;;;;;;;;;21.60;48.50;;;;;;464254;256;1256;-49
2022/08/23 02:00:29;;;;;;;;;;;21.60;48.50;;;;;;464560;255;2224;-49
2022/08/23 02:02:30;;;;;;;;;;;21.60;48.50;;;;;;464259;256;1280;-48
2022/08/23 02:04:32;;;;;;;;;;;21.60;48.60;;;;;;464664;255;1289;-49
2022/08/23 02:06:33;;;;;;;;;;;21.60;48.60;;;;;;464577;255;1262;-48
2022/08/23 02:10:53;;;;;;;;;;;21.60;48.60;;;;;;464677;257;1318;-49
2022/08/23 02:12:55;;;;;;;;;;;21.60;48.60;;;;;;464353;255;1397;-49
2022/08/23 02:14:56;;;;;;;;;;;21.60;48.60;;;;;;464683;255;1307;-49
2022/08/23 02:16:58;;;;;;;;;;;21.60;48.60;;;;;;464205;256;1316;-49
2022/08/23 02:19:01;;;;;;;;;;;21.60;48.60;;;;;;464697;255;1274;-49
2022/08/23 02:21:01;;;;;;;;;;;21.60;48.70;;;;;;464341;255;1587;-49
2022/08/23 02:23:02;;;;;;;;;;;21.60;48.60;;;;;;464288;256;1234;-49
2022/08/23 02:25:03;;;;;;;;;;;21.60;48.60;;;;;;464681;255;1127;-49
2022/08/23 02:27:05;;;;;;;;;;;21.60;48.70;;;;;;464356;255;1207;-49
2022/08/23 02:29:06;;;;;;;;;;;21.50;48.60;;;;;;464688;255;2159;-49
2022/08/23 02:31:07;;;;;;;;;;;21.60;48.70;;;;;;464482;255;1121;-49
2022/08/23 02:33:09;;;;;;;;;;;21.60;48.60;;;;;;464695;255;1142;-49
2022/08/23 02:35:10;;;;;;;;;;;21.60;48.60;;;;;;464685;255;1296;-49
2022/08/23 02:37:11;;;;;;;;;;;21.60;48.70;;;;;;464672;255;1274;-49
2022/08/23 02:39:13;;;;;;;;;;;21.60;48.60;;;;;;464374;255;1431;-49
2022/08/23 02:41:16;;;;;;;;;;;21.60;48.60;;;;;;464673;255;1215;-49
2022/08/23 02:43:16;;;;;;;;;;;21.60;48.60;;;;;;464224;256;2509;-49
2022/08/23 02:45:17;;;;;;;;;;;21.60;48.60;;;;;;464662;255;1262;-49
2022/08/23 02:47:18;;;;;;;;;;;21.60;48.70;;;;;;464262;256;1356;-48
2022/08/23 02:49:20;;;;;;;;;;;21.60;48.70;;;;;;464484;255;2219;-49
2022/08/23 02:51:21;;;;;;;;;;;21.50;48.70;;;;;;464247;256;1291;-49
2022/08/23 02:53:22;;;;;;;;;;;21.60;48.70;;;;;;464629;255;1314;-49
2022/08/23 02:55:24;;;;;;;;;;;21.60;48.70;;;;;;464653;255;1227;-49
2022/08/23 02:57:25;;;;;;;;;;;21.50;48.70;;;;;;464235;256;1201;-48
2022/08/23 02:59:26;;;;;;;;;;;21.50;48.70;;;;;;464314;255;1402;-49
2022/08/23 03:01:28;;;;;;;;;;;21.50;48.70;;;;;;464275;255;1276;-49
2022/08/23 03:03:29;;;;;;;;;;;21.50;48.70;;;;;;464239;256;1267;-49
2022/08/23 03:05:30;;;;;;;;;;;21.60;48.70;;;;;;464482;255;1344;-48
2022/08/23 03:07:32;;;;;;;;;;;21.60;48.70;;;;;;464656;255;1251;-48
2022/08/23 03:09:33;;;;;;;;;;;21.60;48.70;;;;;;464211;256;2179;-49
2022/08/23 03:11:34;;;;;;;;;;;21.60;48.70;;;;;;464468;255;1281;-49
2022/08/23 03:13:36;;;;;;;;;;;21.60;48.70;;;;;;464357;255;1328;-49
2022/08/23 03:15:37;;;;;;;;;;;21.60;48.70;;;;;;464225;256;1205;-49
2022/08/23 03:17:38;;;;;;;;;;;21.60;48.70;;;;;;464266;256;1252;-49
2022/08/23 03:19:40;;;;;;;;;;;21.60;48.70;;;;;;464277;256;1465;-49
2022/08/23 03:21:41;;;;;;;;;;;21.50;48.70;;;;;;464665;255;1214;-49
2022/08/23 03:23:43;;;;;;;;;;;21.50;48.70;;;;;;464466;255;1268;-49
2022/08/23 03:25:44;;;;;;;;;;;21.60;48.70;;;;;;464221;256;1303;-49
2022/08/23 03:27:45;;;;;;;;;;;21.60;48.70;;;;;;464533;255;1345;-49
2022/08/23 03:29:47;;;;;;;;;;;21.50;48.70;;;;;;464631;255;2178;-49
2022/08/23 03:31:50;;;;;;;;;;;21.60;48.70;;;;;;464225;256;1365;-49
2022/08/23 03:33:50;;;;;;;;;;;21.50;48.70;;;;;;464212;256;2388;-48
2022/08/23 03:35:51;;;;;;;;;;;21.50;48.70;;;;;;464241;256;2236;-49
2022/08/23 03:37:53;;;;;;;;;;;21.50;48.70;;;;;;464242;256;1346;-49
2022/08/23 03:39:54;;;;;;;;;;;21.50;48.70;;;;;;464204;256;1296;-49
2022/08/23 03:41:56;;;;;;;;;;;21.50;48.70;;;;;;464665;255;1404;-49
2022/08/23 03:43:57;;;;;;;;;;;21.50;48.70;;;;;;464378;255;1177;-49
2022/08/23 03:45:58;;;;;;;;;;;21.50;48.70;;;;;;464286;256;1297;-49
2022/08/23 03:48:00;;;;;;;;;;;21.50;48.70;;;;;;464290;256;1123;-49
2022/08/23 03:50:01;;;;;;;;;;;21.50;48.70;;;;;;464237;256;2207;-48
2022/08/23 03:52:02;;;;;;;;;;;21.60;48.80;;;;;;464675;255;1365;-49
2022/08/23 03:54:03;;;;;;;;;;;21.50;48.70;;;;;;464429;255;1252;-49
2022/08/23 03:56:05;;;;;;;;;;;21.50;48.70;;;;;;464412;255;1214;-49
2022/08/23 03:58:06;;;;;;;;;;;21.50;48.70;;;;;;464263;256;1276;-48
2022/08/23 04:00:07;;;;;;;;;;;21.60;48.70;;;;;;464393;255;1180;-49
2022/08/23 04:02:09;;;;;;;;;;;21.50;48.70;;;;;;464300;255;1242;-49
2022/08/23 04:04:10;;;;;;;;;;;21.50;48.70;;;;;;464656;255;2085;-49
2022/08/23 04:06:13;;;;;;;;;;;21.50;48.70;;;;;;464629;255;1250;-49
2022/08/23 04:08:13;;;;;;;;;;;21.60;48.80;;;;;;464282;255;2489;-49
2022/08/23 04:10:15;;;;;;;;;;;21.50;48.70;;;;;;464351;255;2171;-49
2022/08/23 04:12:16;;;;;;;;;;;21.50;48.70;;;;;;464269;255;1305;-49
2022/08/23 04:14:17;;;;;;;;;;;21.60;48.70;;;;;;464349;255;1255;-49
2022/08/23 04:16:19;;;;;;;;;;;21.50;48.70;;;;;;464596;255;1325;-49
2022/08/23 04:18:20;;;;;;;;;;;21.60;48.70;;;;;;464416;255;1294;-49
2022/08/23 04:20:21;;;;;;;;;;;21.60;48.70;;;;;;464658;255;1313;-49
2022/08/23 04:22:23;;;;;;;;;;;21.50;48.70;;;;;;464600;255;1314;-49
2022/08/23 04:24:24;;;;;;;;;;;21.50;48.70;;;;;;464389;255;1338;-49
2022/08/23 04:26:26;;;;;;;;;;;21.50;48.70;;;;;;464184;256;1269;-49
2022/08/23 04:28:27;;;;;;;;;;;21.50;48.70;;;;;;464527;255;1307;-49
2022/08/23 04:30:29;;;;;;;;;;;21.50;48.70;;;;;;464228;256;2206;-49
2022/08/23 04:32:30;;;;;;;;;;;21.60;48.70;;;;;;464238;256;1383;-49
2022/08/23 04:34:32;;;;;;;;;;;21.50;48.70;;;;;;464233;256;1375;-49
2022/08/23 04:36:33;;;;;;;;;;;21.60;48.70;;;;;;464213;256;1658;-49
2022/08/23 04:38:34;;;;;;;;;;;21.50;48.70;;;;;;464624;255;1256;-49
2022/08/23 04:42:55;;;;;;;;;;;21.60;48.80;;;;;;464470;257;1376;-49
2022/08/23 04:44:57;;;;;;;;;;;21.50;48.70;;;;;;464202;255;1326;-49
2022/08/23 04:46:58;;;;;;;;;;;21.50;48.70;;;;;;464222;256;1345;-49
2022/08/23 04:48:59;;;;;;;;;;;21.50;48.70;;;;;;464584;255;1245;-48
2022/08/23 04:51:01;;;;;;;;;;;21.50;48.80;;;;;;464412;255;2210;-49
2022/08/23 04:53:02;;;;;;;;;;;21.50;48.70;;;;;;464224;256;1299;-49
2022/08/23 04:55:04;;;;;;;;;;;21.50;48.70;;;;;;464477;255;1218;-49
2022/08/23 04:57:05;;;;;;;;;;;21.50;48.70;;;;;;464388;255;1384;-49
2022/08/23 04:59:06;;;;;;;;;;;21.50;48.80;;;;;;464486;255;1375;-49
2022/08/23 05:01:08;;;;;;;;;;;21.50;48.80;;;;;;464670;255;1256;-49
2022/08/23 05:03:09;;;;;;;;;;;21.50;48.80;;;;;;464275;255;1096;-49
2022/08/23 05:05:11;;;;;;;;;;;21.50;48.80;;;;;;464105;256;1163;-49
2022/08/23 05:07:14;;;;;;;;;;;21.50;48.80;;;;;;464690;255;1199;-48
2022/08/23 05:09:13;;;;;;;;;;;21.50;48.80;;;;;;464197;256;2210;-49
2022/08/23 05:11:15;;;;;;;;;;;21.50;48.80;;;;;;464233;256;1297;-49
2022/08/23 05:13:16;;;;;;;;;;;21.50;48.80;;;;;;464613;255;1244;-48
2022/08/23 05:15:17;;;;;;;;;;;21.50;48.80;;;;;;464286;255;1259;-49
2022/08/23 05:17:19;;;;;;;;;;;21.50;48.80;;;;;;464427;255;1316;-48
2022/08/23 05:19:20;;;;;;;;;;;21.50;48.80;;;;;;464177;255;1376;-49
2022/08/23 05:21:21;;;;;;;;;;;21.50;48.80;;;;;;464270;255;1199;-49
2022/08/23 05:23:23;;;;;;;;;;;21.50;48.80;;;;;;464180;256;1262;-49
2022/08/23 05:25:48;;;;;;;;;;;21.50;48.80;;;;;;464223;256;1255;-49
2022/08/23 05:27:25;;;;;;;;;;;21.50;48.70;;;;;;463874;256;1905;-49
2022/08/23 05:29:27;;;;;;;;;;;21.50;48.70;;;;;;464185;256;2215;-49
2022/08/23 05:31:29;;;;;;;;;;;21.50;48.70;;;;;;464621;255;1291;-48
2022/08/23 05:33:30;;;;;;;;;;;21.50;48.70;;;;;;464265;256;2521;-49
2022/08/23 05:35:31;;;;;;;;;;;21.50;48.70;;;;;;464641;255;1242;-49
2022/08/23 05:37:32;;;;;;;;;;;21.50;48.70;;;;;;464665;255;1329;-49
2022/08/23 05:39:34;;;;;;;;;;;21.50;48.60;;;;;;464636;255;1449;-49
2022/08/23 05:41:35;;;;;;;;;;;21.60;48.50;;;;;;464541;255;1257;-49
2022/08/23 05:43:36;;;;;;;;;;;21.60;48.40;;;;;;464480;255;1184;-49
2022/08/23 05:45:38;;;;;;;;;;;21.60;48.20;;;;;;464279;255;1257;-49
2022/08/23 05:47:39;;;;;;;;;;;21.60;48.10;;;;;;464640;255;1249;-49
2022/08/23 05:49:41;;;;;;;;;;;21.60;48.10;;;;;;464305;255;2210;-49
2022/08/23 05:51:42;;;;;;;;;;;21.60;48.00;;;;;;464401;255;2030;-48
2022/08/23 05:53:43;;;;;;;;;;;21.60;47.90;;;;;;464155;256;1259;-49
2022/08/23 05:55:44;;;;;;;;;;;21.60;47.90;;;;;;464252;256;1243;-49
2022/08/23 05:57:46;;;;;;;;;;;21.60;47.80;;;;;;464595;255;1288;-49
2022/08/23 05:59:47;;;;;;;;;;;21.60;47.80;;;;;;464478;255;1251;-49
2022/08/23 06:01:48;;;;;;;;;;;21.60;47.70;;;;;;464622;255;1086;-48
2022/08/23 06:03:50;;;;;;;;;;;21.60;47.60;;;;;;464270;255;1201;-49
2022/08/23 06:05:51;;;;;;;;;;;21.60;47.50;;;;;;464413;255;1287;-49
2022/08/23 06:07:52;;;;;;;;;;;21.60;47.50;;;;;;464342;255;1202;-49
2022/08/23 06:09:54;;;;;;;;;;;21.60;47.40;;;;;;464193;256;2177;-49
2022/08/23 06:11:55;;;;;;;;;;;21.60;47.40;;;;;;464440;255;1267;-49
2022/08/23 06:13:56;;;;;;;;;;;21.60;47.30;;;;;;464388;255;1235;-49
2022/08/23 06:15:58;;;;;;;;;;;21.60;47.20;;;;;;464223;256;1221;-49
2022/08/23 06:17:59;;;;;;;;;;;21.60;47.30;;;;;;464130;256;1384;-49
2022/08/23 06:20:01;;;;;;;;;;;21.60;47.20;;;;;;464494;255;1334;-49
2022/08/23 06:22:02;;;;;;;;;;;21.60;47.20;;;;;;464148;256;2236;-49
2022/08/23 06:24:03;;;;;;;;;;;21.60;47.10;;;;;;464528;255;1242;-49
2022/08/23 06:26:04;;;;;;;;;;;21.60;47.10;;;;;;464639;255;1237;-49
2022/08/23 06:28:06;;;;;;;;;;;21.60;47.10;;;;;;464253;256;1146;-49
2022/08/23 06:30:07;;;;;;;;;;;21.60;47.00;;;;;;464400;255;2228;-49
2022/08/23 06:32:08;;;;;;;;;;;21.60;47.00;;;;;;463998;255;1251;-49
2022/08/23 06:34:10;;;;;;;;;;;21.60;46.90;;;;;;464613;255;1126;-49
2022/08/23 06:36:11;;;;;;;;;;;21.60;46.90;;;;;;464261;255;1254;-49
2022/08/23 06:38:12;;;;;;;;;;;21.60;46.90;;;;;;464120;256;1273;-49
2022/08/23 06:40:14;;;;;;;;;;;21.60;46.80;;;;;;464134;255;1218;-49
2022/08/23 06:42:16;;;;;;;;;;;21.60;46.90;;;;;;463949;256;1266;-48
2022/08/23 06:44:17;;;;;;;;;;;21.60;46.80;;;;;;464336;255;2393;-49
2022/08/23 06:46:18;;;;;;;;;;;21.60;46.80;;;;;;463911;255;1381;-49
2022/08/23 06:48:19;;;;;;;;;;;21.60;46.70;;;;;;463725;256;1125;-49
2022/08/23 06:50:21;;;;;;;;;;;21.60;46.70;;;;;;463951;255;2178;-48
2022/08/23 06:52:22;;;;;;;;;;;21.60;46.80;;;;;;464196;255;2337;-49
2022/08/23 06:54:23;;;;;;;;;;;21.60;46.70;;;;;;464302;255;1484;-49
2022/08/23 06:56:24;;;;;;;;;;;21.60;46.60;;;;;;464184;255;1151;-49
2022/08/23 06:58:26;;;;;;;;;;;21.60;46.60;;;;;;463788;255;1133;-49
2022/08/23 07:00:27;;;;;;;;;;;21.60;46.60;;;;;;464119;256;1302;-49
2022/08/23 07:02:28;;;;;;;;;;;21.60;46.60;;;;;;464484;255;1096;-49
2022/08/23 07:04:30;;;;;;;;;;;21.60;46.50;;;;;;463942;255;1276;-49
2022/08/23 07:06:31;;;;;;;;;;;21.60;46.60;;;;;;464369;255;1132;-49
2022/08/23 07:08:32;;;;;;;;;;;21.60;46.40;;;;;;464152;255;1168;-49
2022/08/23 07:10:34;;;;;;;;;;;21.60;46.40;;;;;;464022;256;2178;-49
2022/08/23 07:12:35;;;;;;;;;;;21.60;46.40;;;;;;464614;255;1119;-49
2022/08/23 07:14:36;;;;;;;;;;;21.60;46.40;;;;;;464395;255;1128;-49
2022/08/23 07:16:38;;;;;;;;;;;21.60;46.40;;;;;;464062;255;1209;-49
2022/08/23 07:18:39;;;;;;;;;;;21.60;46.40;;;;;;464145;255;1237;-49
2022/08/23 07:20:40;;;;;;;;;;;21.60;46.40;;;;;;464129;256;1201;-48
2022/08/23 07:22:43;;;;;;;;;;;21.60;46.40;;;;;;464260;255;1195;-48
2022/08/23 07:24:43;;;;;;;;;;;21.60;46.40;;;;;;464082;256;1773;-49
2022/08/23 07:26:44;;;;;;;;;;;21.60;46.40;;;;;;464042;255;1277;-48
2022/08/23 07:28:46;;;;;;;;;;;21.60;46.40;;;;;;464061;255;1196;-49
2022/08/23 07:30:47;;;;;;;;;;;21.60;46.40;;;;;;464105;255;2186;-49
2022/08/23 07:32:48;;;;;;;;;;;21.60;46.30;;;;;;464201;255;1192;-49
2022/08/23 07:34:50;;;;;;;;;;;21.60;46.30;;;;;;464075;255;1163;-49
2022/08/23 07:36:51;;;;;;;;;;;21.60;46.30;;;;;;464215;255;2251;-49
2022/08/23 07:38:52;;;;;;;;;;;21.60;46.40;;;;;;464055;255;1362;-48
2022/08/23 07:40:54;;;;;;;;;;;21.60;46.30;;;;;;464071;256;1242;-49
2022/08/23 07:42:55;;;;;;;;;;;21.60;46.30;;;;;;464246;255;1292;-49
2022/08/23 07:44:56;;;;;;;;;;;21.60;46.40;;;;;;463980;255;1213;-49
2022/08/23 07:46:58;;;;;;;;;;;21.60;46.30;;;;;;463861;255;1330;-49
2022/08/23 07:48:59;;;;;;;;;;;21.60;46.20;;;;;;463976;256;1272;-49
2022/08/23 07:51:00;;;;;;;;;;;21.60;46.30;;;;;;463750;256;2170;-48
2022/08/23 07:53:02;;;;;;;;;;;21.60;46.20;;;;;;463833;255;1292;-49
2022/08/23 07:55:04;;;;;;;;;;;21.60;46.20;;;;;;463869;255;1230;-49
2022/08/23 07:57:05;;;;;;;;;;;21.60;46.10;;;;;;463914;255;1194;-49
2022/08/23 07:59:06;;;;;;;;;;;21.60;46.10;;;;;;464219;255;1162;-49
2022/08/23 08:01:07;;;;;;;;;;;21.60;46.10;;;;;;463967;255;1262;-50
2022/08/23 08:03:09;;;;;;;;;;;21.60;46.00;;;;;;464052;255;1223;-49
2022/08/23 08:05:10;;;;;;;;;;;21.60;46.10;;;;;;464045;256;1194;-49
2022/08/23 08:07:11;;;;;;;;;;;21.60;46.10;;;;;;463876;255;1662;-49
2022/08/23 08:09:13;;;;;;;;;;;21.60;46.10;;;;;;464031;256;1251;-49
2022/08/23 08:11:15;;;;;;;;;;;21.60;46.10;;;;;;463949;256;2215;-49
2022/08/23 08:13:15;;;;;;;;;;;21.60;46.10;;;;;;464422;255;1987;-48
2022/08/23 08:15:16;;;;;;;;;;;21.60;46.10;;;;;;464116;255;1254;-49
2022/08/23 08:17:18;;;;;;;;;;;21.60;46.10;;;;;;464041;255;1260;-49
2022/08/23 08:19:19;;;;;;;;;;;21.60;46.20;;;;;;464071;255;1257;-49
2022/08/23 08:21:21;;;;;;;;;;;21.60;46.30;;;;;;464158;255;1346;-49
2022/08/23 08:23:22;;;;;;;;;;;21.60;46.40;;;;;;464126;255;1204;-49
2022/08/23 08:25:23;;;;;;;;;;;21.60;46.30;;;;;;464264;255;1163;-49
2022/08/23 08:27:25;;;;;;;;;;;21.60;46.20;;;;;;464006;256;1183;-49
2022/08/23 08:29:26;;;;;;;;;;;21.60;46.20;;;;;;464039;255;1134;-49
2022/08/23 08:31:27;;;;;;;;;;;21.60;46.20;;;;;;464169;255;2167;-49
2022/08/23 08:33:29;;;;;;;;;;;21.60;46.10;;;;;;464005;256;1313;-49
2022/08/23 08:35:30;;;;;;;;;;;21.60;46.10;;;;;;464014;256;1125;-49
2022/08/23 08:37:31;;;;;;;;;;;21.60;46.10;;;;;;464150;256;1121;-49
2022/08/23 08:39:32;;;;;;;;;;;21.60;46.10;;;;;;464254;255;1193;-49
2022/08/23 08:41:34;;;;;;;;;;;21.60;46.00;;;;;;464045;255;1230;-49
2022/08/23 08:43:35;;;;;;;;;;;21.60;46.00;;;;;;464504;255;1292;-49
2022/08/23 08:45:36;;;;;;;;;;;21.60;46.00;;;;;;464189;255;1265;-49
2022/08/23 08:47:38;;;;;;;;;;;21.50;45.90;;;;;;464017;255;1294;-49
2022/08/23 08:49:40;;;;;;;;;;;21.60;45.90;;;;;;463913;255;1252;-49
2022/08/23 08:51:41;;;;;;;;;;;21.60;45.80;;;;;;464107;255;2167;-49
2022/08/23 08:53:42;;;;;;;;;;;21.60;45.80;;;;;;464484;255;1216;-49
2022/08/23 08:55:43;;;;;;;;;;;21.60;45.80;;;;;;464259;255;1313;-49
2022/08/23 08:57:45;;;;;;;;;;;21.50;45.80;;;;;;464131;255;1292;-49
2022/08/23 08:59:46;;;;;;;;;;;21.60;45.80;;;;;;464274;255;1210;-49
2022/08/23 09:01:47;;;;;;;;;;;21.60;45.80;;;;;;464252;255;1263;-49
2022/08/23 09:03:49;;;;;;;;;;;21.60;45.70;;;;;;464294;255;1771;-49
2022/08/23 09:05:51;;;;;;;;;;;21.60;45.80;;;;;;464138;255;1277;-49
2022/08/23 09:07:51;;;;;;;;;;;21.60;45.70;;;;;;463987;256;2288;-49
2022/08/23 09:09:53;;;;;;;;;;;21.60;45.70;;;;;;464192;255;1316;-49
2022/08/23 09:11:55;;;;;;;;;;;21.60;45.60;;;;;;464133;255;2226;-49
2022/08/23 09:13:55;;;;;;;;;;;21.60;45.60;;;;;;464067;255;2234;-49
2022/08/23 09:15:57;;;;;;;;;;;21.60;45.60;;;;;;464138;256;1250;-48
2022/08/23 09:17:58;;;;;;;;;;;21.60;45.60;;;;;;463983;255;1277;-49
2022/08/23 09:19:59;;;;;;;;;;;21.60;45.60;;;;;;464177;255;1240;-49
2022/08/23 09:22:01;;;;;;;;;;;21.60;45.60;;;;;;464045;256;1296;-49
2022/08/23 09:24:03;;;;;;;;;;;21.60;45.60;;;;;;464048;256;1255;-49
2022/08/23 09:26:04;;;;;;;;;;;21.60;45.50;;;;;;464351;255;2327;-49
2022/08/23 09:28:05;;;;;;;;;;;21.60;45.50;;;;;;464208;255;1253;-49
2022/08/23 09:30:06;;;;;;;;;;;21.60;45.50;;;;;;464341;255;1281;-49
2022/08/23 09:32:08;;;;;;;;;;;21.60;45.50;;;;;;464109;255;2201;-49
2022/08/23 09:34:09;;;;;;;;;;;21.60;45.50;;;;;;464306;255;1234;-49
2022/08/23 09:36:10;;;;;;;;;;;21.60;45.50;;;;;;464003;256;1210;-49
2022/08/23 09:38:12;;;;;;;;;;;21.60;45.40;;;;;;464178;255;1253;-49
2022/08/23 09:40:13;;;;;;;;;;;21.60;45.50;;;;;;464156;255;1983;-49
2022/08/23 09:42:14;;;;;;;;;;;21.60;45.40;;;;;;464086;256;1239;-49
2022/08/23 09:44:16;;;;;;;;;;;21.60;45.40;;;;;;464082;256;1242;-49
2022/08/23 09:46:17;;;;;;;;;;;21.60;45.40;;;;;;463863;256;1243;-48
2022/08/23 09:48:18;;;;;;;;;;;21.60;45.30;;;;;;464061;256;1223;-49
2022/08/23 09:50:19;;;;;;;;;;;21.60;45.30;;;;;;464062;255;1329;-49
2022/08/23 09:52:21;;;;;;;;;;;21.60;45.30;;;;;;464075;255;2166;-49
2022/08/23 09:54:23;;;;;;;;;;;21.50;45.30;;;;;;464049;255;1289;-49
2022/08/23 09:56:23;;;;;;;;;;;21.60;45.50;;;;;;464158;255;1904;-49
2022/08/23 09:58:25;;;;;;;;;;;21.60;45.60;;;;;;464089;255;1173;-50
2022/08/23 10:00:26;;;;;;;;;;;21.60;45.60;;;;;;464218;255;1230;-49
2022/08/23 10:02:28;;;;;;;;;;;21.60;45.50;;;;;;464303;255;1213;-49
2022/08/23 10:04:29;;;;;;;;;;;21.60;45.50;;;;;;464050;256;1258;-49
2022/08/23 10:06:31;;;;;;;;;;;21.60;45.40;;;;;;464105;255;1271;-49
2022/08/23 10:08:32;;;;;;;;;;;21.60;45.40;;;;;;464067;255;1352;-49
2022/08/23 10:10:33;;;;;;;;;;;21.60;45.40;;;;;;464178;256;1352;-49
2022/08/23 10:12:35;;;;;;;;;;;21.60;45.30;;;;;;464316;255;2178;-49
2022/08/23 10:14:36;;;;;;;;;;;21.60;45.30;;;;;;464074;255;1219;-48
2022/08/23 10:16:37;;;;;;;;;;;21.60;45.20;;;;;;464143;255;1238;-49
2022/08/23 10:18:39;;;;;;;;;;;21.60;45.30;;;;;;463977;256;1246;-49
2022/08/23 10:20:40;;;;;;;;;;;21.60;45.20;;;;;;464068;255;1274;-48
2022/08/23 10:22:41;;;;;;;;;;;21.60;45.20;;;;;;464055;256;1645;-49
2022/08/23 10:24:42;;;;;;;;;;;21.60;45.20;;;;;;464405;255;1265;-49
2022/08/23 10:26:44;;;;;;;;;;;21.60;45.20;;;;;;464391;255;1318;-49
2022/08/23 10:31:05;;;;;;;;;;;21.60;45.20;;;;;;464330;257;1270;-49
2022/08/23 10:33:06;;;;;;;;;;;21.60;45.10;;;;;;464287;255;2131;-49
2022/08/23 10:35:08;;;;;;;;;;;21.60;45.10;;;;;;464555;255;1244;-49
2022/08/23 10:37:09;;;;;;;;;;;21.60;45.10;;;;;;464332;255;1165;-49
2022/08/23 10:39:10;;;;;;;;;;;21.60;45.10;;;;;;464106;256;1209;-49
2022/08/23 10:41:12;;;;;;;;;;;21.60;45.00;;;;;;464050;255;1198;-49
2022/08/23 10:43:13;;;;;;;;;;;21.60;45.00;;;;;;464018;255;1380;-48
2022/08/23 10:45:14;;;;;;;;;;;21.60;44.90;;;;;;464518;255;2090;-49
2022/08/23 10:47:16;;;;;;;;;;;21.60;45.00;;;;;;464230;255;1260;-48
2022/08/23 10:49:17;;;;;;;;;;;21.60;45.00;;;;;;464323;255;1565;-49
2022/08/23 10:51:19;;;;;;;;;;;21.60;44.80;;;;;;464208;255;2160;-49
2022/08/23 10:53:20;;;;;;;;;;;21.60;44.90;;;;;;463977;256;1299;-49
2022/08/23 10:55:34;;;;;;;;;;;21.60;44.90;;;;;;464061;255;1249;-49
2022/08/23 10:57:23;;;;;;;;;;;21.60;44.90;;;;;;463873;255;1847;-48
2022/08/23 10:59:24;;;;;;;;;;;21.60;44.80;;;;;;463999;256;1238;-49
2022/08/23 11:01:26;;;;;;;;;;;21.60;44.80;;;;;;464096;256;1339;-48
2022/08/23 11:03:27;;;;;;;;;;;21.60;44.80;;;;;;464145;255;1680;-49
2022/08/23 11:05:29;;;;;;;;;;;21.60;44.80;;;;;;464406;255;1271;-48
2022/08/23 11:07:30;;;;;;;;;;;21.60;44.80;;;;;;463999;256;1214;-49
2022/08/23 11:09:31;;;;;;;;;;;21.60;44.80;;;;;;464141;255;1185;-49
2022/08/23 11:11:33;;;;;;;;;;;21.60;44.80;;;;;;463909;255;2167;-49
2022/08/23 11:13:34;;;;;;;;;;;21.60;44.70;;;;;;463984;256;1207;-49
2022/08/23 11:15:35;;;;;;;;;;;21.60;44.60;;;;;;464413;255;1227;-49
2022/08/23 11:17:37;;;;;;;;;;;21.60;44.70;;;;;;464204;255;1173;-49
2022/08/23 11:19:38;;;;;;;;;;;21.60;44.70;;;;;;464253;255;1224;-49
2022/08/23 11:21:40;;;;;;;;;;;21.60;44.70;;;;;;463964;255;1230;-49
2022/08/23 11:23:41;;;;;;;;;;;21.60;44.60;;;;;;463958;255;1984;-48
2022/08/23 11:25:42;;;;;;;;;;;21.60;44.60;;;;;;463928;255;1667;-49
2022/08/23 11:27:44;;;;;;;;;;;21.60;44.60;;;;;;463791;256;1319;-48
2022/08/23 11:29:45;;;;;;;;;;;21.60;44.50;;;;;;463922;255;1216;-48
2022/08/23 11:31:47;;;;;;;;;;;21.60;44.50;;;;;;463888;255;2210;-49
2022/08/23 11:33:47;;;;;;;;;;;21.60;44.50;;;;;;463776;256;2604;-48
2022/08/23 11:35:49;;;;;;;;;;;21.60;44.50;;;;;;464004;255;1191;-49
2022/08/23 11:37:50;;;;;;;;;;;21.60;44.50;;;;;;463790;255;1324;-49
2022/08/23 11:39:51;;;;;;;;;;;21.60;44.50;;;;;;463915;255;1319;-48
2022/08/23 11:41:53;;;;;;;;;;;21.60;44.60;;;;;;463920;255;1345;-49
2022/08/23 11:43:54;;;;;;;;;;;21.60;44.70;;;;;;464224;255;1375;-48
2022/08/23 11:45:56;;;;;;;;;;;21.60;44.80;;;;;;464075;255;1343;-49
2022/08/23 11:47:57;;;;;;;;;;;21.60;44.70;;;;;;463966;255;1351;-49
2022/08/23 11:49:58;;;;;;;;;;;21.60;44.70;;;;;;464215;255;1558;-49
2022/08/23 11:52:00;;;;;;;;;;;21.60;44.70;;;;;;464256;255;2160;-49
2022/08/23 11:54:01;;;;;;;;;;;21.60;44.60;;;;;;464143;255;1255;-49
2022/08/23 11:56:02;;;;;;;;;;;21.60;44.60;;;;;;464191;255;1228;-49
2022/08/23 11:58:04;;;;;;;;;;;21.60;44.50;;;;;;464081;255;1524;-49
2022/08/23 12:00:06;;;;;;;;;;;21.60;44.60;;;;;;464140;255;1261;-49
2022/08/23 12:02:07;;;;;;;;;;;21.60;44.60;;;;;;464125;255;1289;-49
2022/08/23 12:04:10;;;;;;;;;;;21.60;44.50;;;;;;464170;255;1243;-49
2022/08/23 12:06:09;;;;;;;;;;;21.60;44.50;;;;;;463789;256;2315;-49
2022/08/23 12:08:11;;;;;;;;;;;21.60;44.50;;;;;;463922;256;1301;-49